createdAt,value
2022-12-20T00:01:13.148Z,14.63
2022-12-20T00:03:41.444Z,14.58
2022-12-20T00:06:11.102Z,14.47
2022-12-20T00:08:39.495Z,14.29
2022-12-20T00:11:08.992Z,14.37
2022-12-20T00:13:37.320Z,14.56
2022-12-20T00:16:07.173Z,14.60
2022-12-20T00:18:37.264Z,14.48
2022-12-20T00:21:07.707Z,14.54
2022-12-20T00:23:36.527Z,14.63
2022-12-20T00:26:06.305Z,14.59
2022-12-20T00:28:34.571Z,14.75
2022-12-20T00:31:02.984Z,14.65
2022-12-20T00:33:31.279Z,14.78
2022-12-20T00:36:00.682Z,14.88
2022-12-20T00:38:28.968Z,14.81
2022-12-20T00:41:04.347Z,14.65
2022-12-20T00:43:33.015Z,14.67
2022-12-20T00:46:01.550Z,14.60
2022-12-20T00:48:31.343Z,14.60
2022-12-20T00:51:01.505Z,14.63
2022-12-20T00:53:30.150Z,14.68
2022-12-20T00:55:58.244Z,14.73
2022-12-20T00:58:26.910Z,14.87
2022-12-20T01:00:56.833Z,14.92
2022-12-20T01:03:25.705Z,14.83
2022-12-20T01:05:54.561Z,14.81
2022-12-20T01:08:26.135Z,15.04
2022-12-20T01:11:00.356Z,14.78
2022-12-20T01:13:28.707Z,14.81
2022-12-20T01:15:57.314Z,14.89
2022-12-20T01:18:25.403Z,15.02
2022-12-20T01:21:02.723Z,14.94
2022-12-20T01:23:32.601Z,14.78
2022-12-20T01:26:01.377Z,14.78
2022-12-20T01:28:30.008Z,15.03
2022-12-20T01:30:58.595Z,15.06
2022-12-20T01:33:26.739Z,15.03
2022-12-20T01:35:59.279Z,15.16
2022-12-20T01:38:28.126Z,15.24
2022-12-20T01:40:58.202Z,15.12
2022-12-20T01:43:28.020Z,15.10
2022-12-20T01:45:56.135Z,15.07
2022-12-20T01:48:27.347Z,15.14
2022-12-20T01:50:55.449Z,15.07
2022-12-20T01:53:25.565Z,15.03
2022-12-20T01:55:54.892Z,15.17
2022-12-20T01:58:25.064Z,15.10
2022-12-20T02:00:53.269Z,15.10
2022-12-20T02:03:21.419Z,15.13
2022-12-20T02:05:49.596Z,15.18
2022-12-20T02:08:20.582Z,15.17
2022-12-20T02:11:02.764Z,15.17
2022-12-20T02:13:39.141Z,15.25
2022-12-20T02:16:07.478Z,15.25
2022-12-20T02:18:40.443Z,15.33
2022-12-20T02:21:35.743Z,15.39
2022-12-20T02:24:37.600Z,15.40
2022-12-20T02:27:35.278Z,15.29
2022-12-20T02:30:14.445Z,15.34
2022-12-20T02:32:49.187Z,15.51
2022-12-20T02:35:23.216Z,15.32
2022-12-20T02:37:53.628Z,15.40
2022-12-20T02:40:25.462Z,15.31
2022-12-20T02:42:59.326Z,15.36
2022-12-20T02:45:34.022Z,15.31
2022-12-20T02:48:05.995Z,15.41
2022-12-20T02:50:39.336Z,15.29
2022-12-20T02:53:08.650Z,15.31
2022-12-20T02:55:44.544Z,15.25
2022-12-20T02:58:19.623Z,15.37
2022-12-20T03:00:52.215Z,15.38
2022-12-20T03:03:26.502Z,15.25
2022-12-20T03:05:56.475Z,15.39
2022-12-20T03:08:25.912Z,15.27
2022-12-20T03:10:55.969Z,15.44
2022-12-20T03:13:24.908Z,15.32
2022-12-20T03:16:00.696Z,15.34
2022-12-20T03:18:29.037Z,15.42
2022-12-20T03:20:57.022Z,15.32
2022-12-20T03:23:25.457Z,15.26
2022-12-20T03:25:53.831Z,15.19
2022-12-20T03:28:30.139Z,15.46
2022-12-20T03:31:00.230Z,15.40
2022-12-20T03:33:28.523Z,15.42
2022-12-20T03:35:59.736Z,15.39
2022-12-20T03:38:27.822Z,15.22
2022-12-20T03:40:55.801Z,15.26
2022-12-20T03:43:24.028Z,15.26
2022-12-20T03:45:52.133Z,15.24
2022-12-20T03:48:22.326Z,15.18
2022-12-20T03:50:50.449Z,15.13
2022-12-20T03:53:18.498Z,15.19
2022-12-20T03:55:46.705Z,14.99
2022-12-20T03:58:16.009Z,14.81
2022-12-20T04:00:44.264Z,14.83
2022-12-20T04:03:38.482Z,14.94
2022-12-20T04:06:07.273Z,14.96
2022-12-20T04:08:35.347Z,14.91
2022-12-20T04:11:18.310Z,14.82
2022-12-20T04:13:53.736Z,14.77
2022-12-20T04:16:25.206Z,14.80
2022-12-20T04:18:56.155Z,14.74
2022-12-20T04:21:26.635Z,14.83
2022-12-20T04:23:57.673Z,14.53
2022-12-20T04:26:30.617Z,14.70
2022-12-20T04:29:00.660Z,14.72
2022-12-20T04:31:29.234Z,14.62
2022-12-20T04:33:59.260Z,14.48
2022-12-20T04:36:27.788Z,14.62
2022-12-20T04:38:57.350Z,14.62
2022-12-20T04:41:27.058Z,14.64
2022-12-20T04:44:00.278Z,14.66
2022-12-20T04:46:37.314Z,14.59
2022-12-20T04:49:09.312Z,14.70
2022-12-20T04:51:40.550Z,14.47
2022-12-20T04:54:07.644Z,14.59
2022-12-20T04:56:44.218Z,14.50
2022-12-20T04:59:16.981Z,14.51
2022-12-20T05:01:47.474Z,14.60
2022-12-20T05:04:24.853Z,14.47
2022-12-20T05:06:52.996Z,14.63
2022-12-20T05:09:21.176Z,14.64
2022-12-20T05:11:50.216Z,14.68
2022-12-20T05:14:18.419Z,14.58
2022-12-20T05:16:46.483Z,14.60
2022-12-20T05:19:14.515Z,14.59
2022-12-20T05:22:02.141Z,14.55
2022-12-20T05:24:48.700Z,14.77
2022-12-20T05:27:25.994Z,14.79
2022-12-20T05:29:54.517Z,14.80
2022-12-20T05:32:22.656Z,14.88
2022-12-20T05:34:51.505Z,14.75
2022-12-20T05:37:22.371Z,14.62
2022-12-20T05:39:50.919Z,14.78
2022-12-20T05:42:22.890Z,14.79
2022-12-20T05:44:53.370Z,14.89
2022-12-20T05:47:23.154Z,14.93
2022-12-20T05:49:59.411Z,14.78
2022-12-20T05:52:31.057Z,14.94
2022-12-20T05:54:59.255Z,15.07
2022-12-20T05:57:28.617Z,15.00
2022-12-20T05:59:57.575Z,15.03
2022-12-20T06:02:26.720Z,15.02
2022-12-20T06:05:02.909Z,14.89
2022-12-20T06:07:32.942Z,15.00
2022-12-20T06:10:01.658Z,15.15
2022-12-20T06:12:43.777Z,14.97
2022-12-20T06:15:13.403Z,15.08
2022-12-20T06:17:43.170Z,15.13
2022-12-20T06:20:13.196Z,15.16
2022-12-20T06:22:45.832Z,15.03
2022-12-20T06:25:16.171Z,15.10
2022-12-20T06:27:44.504Z,15.17
2022-12-20T06:30:15.761Z,14.95
2022-12-20T06:32:59.278Z,14.95
2022-12-20T06:35:27.556Z,15.03
2022-12-20T06:37:58.731Z,15.18
2022-12-20T06:40:28.015Z,15.23
2022-12-20T06:42:58.931Z,14.97
2022-12-20T06:45:27.101Z,14.98
2022-12-20T06:47:55.948Z,15.18
2022-12-20T06:50:24.861Z,15.13
2022-12-20T06:52:53.106Z,15.06
2022-12-20T06:55:22.700Z,15.16
2022-12-20T06:57:51.982Z,15.16
2022-12-20T07:00:22.904Z,15.25
2022-12-20T07:02:51.440Z,15.27
2022-12-20T07:05:19.960Z,15.09
2022-12-20T07:07:48.623Z,15.13
2022-12-20T07:10:17.337Z,15.30
2022-12-20T07:15:36.068Z,15.19
2022-12-20T07:18:06.999Z,14.92
2022-12-20T07:20:36.020Z,15.07
2022-12-20T07:23:04.633Z,15.08
2022-12-20T07:25:33.021Z,15.15
2022-12-20T07:28:03.621Z,15.21
2022-12-20T07:30:32.380Z,15.30
2022-12-20T07:33:00.861Z,15.29
2022-12-20T07:35:29.913Z,15.10
2022-12-20T07:37:59.463Z,14.94
2022-12-20T07:40:28.568Z,14.88
2022-12-20T07:42:57.864Z,14.80
2022-12-20T07:45:28.243Z,14.80
2022-12-20T07:47:59.001Z,14.74
2022-12-20T07:50:34.129Z,14.77
2022-12-20T07:53:05.667Z,14.68
2022-12-20T07:55:34.723Z,14.77
2022-12-20T07:58:08.145Z,14.70
2022-12-20T08:00:39.603Z,14.63
2022-12-20T08:03:13.226Z,14.86
2022-12-20T08:05:45.638Z,14.68
2022-12-20T08:08:15.449Z,14.71
2022-12-20T08:10:44.970Z,14.71
2022-12-20T08:13:14.288Z,14.80
2022-12-20T08:15:45.384Z,14.86
2022-12-20T08:18:14.369Z,14.88
2022-12-20T08:20:43.574Z,14.81
2022-12-20T08:23:12.351Z,14.98
2022-12-20T08:25:42.254Z,14.92
2022-12-20T08:28:11.168Z,14.86
2022-12-20T08:30:40.909Z,14.86
2022-12-20T08:33:11.394Z,14.79
2022-12-20T08:35:40.362Z,14.95
2022-12-20T08:38:09.130Z,14.87
2022-12-20T08:40:37.947Z,15.13
2022-12-20T08:43:10.367Z,15.02
2022-12-20T08:45:39.299Z,15.02
2022-12-20T08:48:08.512Z,14.97
2022-12-20T08:50:38.733Z,15.09
2022-12-20T08:53:07.399Z,15.14
2022-12-20T08:55:36.520Z,15.18
2022-12-20T08:58:05.141Z,15.28
2022-12-20T09:00:34.005Z,15.41
2022-12-20T09:03:02.585Z,15.17
2022-12-20T09:05:31.052Z,15.19
2022-12-20T09:08:00.840Z,15.29
2022-12-20T09:10:29.247Z,15.30
2022-12-20T09:12:57.531Z,15.29
2022-12-20T09:15:27.895Z,15.32
2022-12-20T09:17:56.800Z,15.30
2022-12-20T09:20:25.749Z,15.38
2022-12-20T09:22:54.292Z,15.41
2022-12-20T09:25:24.168Z,15.51
2022-12-20T09:27:52.630Z,15.47
2022-12-20T09:30:21.302Z,15.32
2022-12-20T09:32:49.738Z,15.41
2022-12-20T09:35:23.037Z,15.42
2022-12-20T09:37:51.942Z,15.54
2022-12-20T09:40:25.333Z,15.52
2022-12-20T09:42:54.009Z,15.42
2022-12-20T09:45:27.456Z,15.30
2022-12-20T09:47:56.018Z,15.49
2022-12-20T09:50:48.177Z,15.60
2022-12-20T09:53:29.437Z,15.56
2022-12-20T09:56:04.995Z,15.72
2022-12-20T09:58:43.378Z,15.69
2022-12-20T10:01:24.399Z,16.04
2022-12-20T10:03:54.415Z,15.85
2022-12-20T10:06:35.019Z,15.90
2022-12-20T10:09:05.879Z,15.89
2022-12-20T10:11:57.565Z,15.93
2022-12-20T10:14:39.217Z,16.05
2022-12-20T10:17:15.229Z,16.07
2022-12-20T10:20:08.611Z,15.89
2022-12-20T10:22:44.725Z,15.88
2022-12-20T10:25:18.672Z,16.11
2022-12-20T10:27:50.226Z,16.22
2022-12-20T10:30:24.734Z,16.18
2022-12-20T10:32:55.063Z,16.19
2022-12-20T10:35:26.875Z,16.14
2022-12-20T10:38:09.526Z,16.15
2022-12-20T10:43:41.299Z,15.95
2022-12-20T10:46:11.581Z,16.07
2022-12-20T10:48:41.779Z,16.03
2022-12-20T10:51:17.219Z,16.01
2022-12-20T10:53:57.587Z,15.99
2022-12-20T10:56:29.171Z,16.06
2022-12-20T10:59:01.247Z,15.86
2022-12-20T11:01:32.657Z,15.95
2022-12-20T11:04:03.912Z,15.75
2022-12-20T11:06:43.803Z,15.62
2022-12-20T11:09:26.400Z,15.56
2022-12-20T11:12:03.605Z,15.53
2022-12-20T11:14:39.118Z,15.66
2022-12-20T11:17:23.270Z,15.67
2022-12-20T11:20:13.725Z,15.58
2022-12-20T11:22:51.586Z,15.52
2022-12-20T11:25:39.905Z,15.53
2022-12-20T11:28:34.680Z,15.46
2022-12-20T11:31:14.682Z,15.39
2022-12-20T11:34:04.609Z,15.26
2022-12-20T11:36:43.145Z,15.32
2022-12-20T11:39:19.596Z,15.24
2022-12-20T11:41:57.059Z,15.24
2022-12-20T11:44:33.846Z,15.39
2022-12-20T11:47:21.857Z,15.45
2022-12-20T11:50:04.767Z,15.47
2022-12-20T11:52:40.099Z,15.57
2022-12-20T11:55:21.419Z,15.46
2022-12-20T12:00:53.841Z,15.29
2022-12-20T12:03:31.623Z,15.47
2022-12-20T12:06:04.730Z,15.45
2022-12-20T12:08:41.553Z,15.31
2022-12-20T12:11:55.610Z,15.38
2022-12-20T12:14:07.554Z,15.36
2022-12-20T12:16:39.150Z,15.30
2022-12-20T12:19:12.837Z,15.39
2022-12-20T12:21:45.660Z,15.22
2022-12-20T12:24:23.116Z,15.22
2022-12-20T12:26:51.833Z,15.15
2022-12-20T12:29:22.177Z,15.24
2022-12-20T12:31:56.326Z,15.36
2022-12-20T12:34:47.963Z,15.32
2022-12-20T12:37:49.986Z,15.13
2022-12-20T12:40:52.912Z,15.09
2022-12-20T12:43:45.667Z,15.15
2022-12-20T12:46:16.732Z,15.31
2022-12-20T12:48:50.139Z,15.32
2022-12-20T12:51:27.845Z,15.19
2022-12-20T12:54:04.913Z,15.26
2022-12-20T12:56:44.370Z,15.27
2022-12-20T12:59:43.947Z,15.14
2022-12-20T13:02:28.610Z,15.12
2022-12-20T13:05:00.740Z,15.10
2022-12-20T13:07:43.992Z,15.08
2022-12-20T13:10:45.877Z,15.15
2022-12-20T13:13:21.914Z,15.01
2022-12-20T13:16:48.771Z,14.92
2022-12-20T13:19:20.494Z,15.13
2022-12-20T13:21:54.640Z,15.00
2022-12-20T13:24:57.120Z,14.97
2022-12-20T13:27:30.646Z,14.84
2022-12-20T13:30:03.809Z,14.88
2022-12-20T13:33:13.733Z,14.69
2022-12-20T13:35:56.919Z,14.60
2022-12-20T13:39:01.838Z,14.75
2022-12-20T13:41:39.190Z,14.94
2022-12-20T13:44:41.038Z,14.85
2022-12-20T13:47:24.396Z,15.00
2022-12-20T13:49:52.997Z,14.97
2022-12-20T13:52:28.698Z,14.88
2022-12-20T13:55:00.739Z,15.08
2022-12-20T13:57:32.705Z,14.89
2022-12-20T14:00:07.611Z,14.92
2022-12-20T14:02:41.846Z,14.81
2022-12-20T14:05:18.647Z,14.93
2022-12-20T14:07:49.234Z,14.99
2022-12-20T14:10:22.135Z,15.13
2022-12-20T14:12:54.652Z,15.19
2022-12-20T14:15:27.859Z,15.21
2022-12-20T14:17:56.351Z,15.16
2022-12-20T14:20:30.418Z,15.17
2022-12-20T14:23:05.966Z,15.18
2022-12-20T14:25:40.076Z,15.18
2022-12-20T14:28:24.965Z,15.13
2022-12-20T14:30:58.176Z,15.02
2022-12-20T14:33:33.213Z,14.88
2022-12-20T14:36:12.586Z,14.98
2022-12-20T14:38:42.845Z,15.07
2022-12-20T14:41:32.021Z,15.09
2022-12-20T14:44:05.665Z,15.15
2022-12-20T14:46:36.852Z,15.08
2022-12-20T14:49:12.779Z,15.06
2022-12-20T14:51:41.329Z,15.11
2022-12-20T14:54:39.772Z,15.04
2022-12-20T14:57:13.329Z,15.14
2022-12-20T14:59:41.824Z,15.16
2022-12-20T15:02:38.194Z,15.08
2022-12-20T15:05:25.856Z,15.04
2022-12-20T15:07:54.342Z,15.12
2022-12-20T15:10:23.702Z,15.13
2022-12-20T15:12:52.112Z,15.14
2022-12-20T15:15:34.623Z,15.17
2022-12-20T15:18:09.926Z,14.99
2022-12-20T15:20:38.354Z,15.11
2022-12-20T15:23:06.704Z,15.13
2022-12-20T15:25:42.924Z,15.30
2022-12-20T15:28:17.186Z,15.23
2022-12-20T15:30:46.450Z,15.10
2022-12-20T15:33:22.531Z,15.10
2022-12-20T15:35:51.503Z,15.18
2022-12-20T15:38:29.681Z,15.24
2022-12-20T15:41:15.841Z,15.10
2022-12-20T15:43:44.292Z,15.08
2022-12-20T15:46:13.088Z,15.02
2022-12-20T15:48:42.755Z,15.09
2022-12-20T15:51:17.700Z,15.22
2022-12-20T15:53:46.169Z,15.12
2022-12-20T15:56:19.509Z,15.19
2022-12-20T15:58:48.585Z,15.07
2022-12-20T16:01:19.754Z,15.04
2022-12-20T16:03:49.674Z,15.07
2022-12-20T16:06:18.145Z,15.13
2022-12-20T16:08:46.419Z,15.12
2022-12-20T16:11:22.521Z,15.11
2022-12-20T16:13:51.610Z,15.17
2022-12-20T16:16:21.438Z,15.18
2022-12-20T16:18:51.784Z,15.26
2022-12-20T16:21:22.519Z,15.29
2022-12-20T16:23:51.983Z,15.23
2022-12-20T16:26:21.619Z,15.25
2022-12-20T16:28:51.267Z,15.25
2022-12-20T16:31:24.783Z,15.31
2022-12-20T16:33:55.067Z,15.27
2022-12-20T16:36:23.707Z,15.21
2022-12-20T16:38:52.804Z,15.32
2022-12-20T16:41:22.596Z,15.28
2022-12-20T16:43:50.984Z,15.29
2022-12-20T16:46:21.212Z,15.12
2022-12-20T16:48:50.261Z,15.11
2022-12-20T16:51:28.075Z,15.16
2022-12-20T16:56:47.420Z,15.15
2022-12-20T16:59:19.885Z,15.13
2022-12-20T17:01:50.091Z,15.12
2022-12-20T17:04:20.197Z,15.21
2022-12-20T17:06:50.390Z,15.09
2022-12-20T17:12:10.920Z,15.11
2022-12-20T17:14:39.275Z,15.12
2022-12-20T17:17:07.799Z,15.13
2022-12-20T17:19:36.711Z,15.04
2022-12-20T17:22:25.666Z,15.17
2022-12-20T17:24:54.206Z,15.06
2022-12-20T17:27:22.522Z,15.13
2022-12-20T17:29:52.306Z,15.21
2022-12-20T17:32:22.751Z,15.28
2022-12-20T17:34:51.142Z,15.29
2022-12-20T17:37:21.189Z,15.12
2022-12-20T17:39:49.929Z,15.17
2022-12-20T17:42:18.517Z,15.11
2022-12-20T17:44:47.303Z,15.16
2022-12-20T17:47:17.377Z,15.16
2022-12-20T17:49:45.774Z,15.09
2022-12-20T17:52:15.777Z,15.29
2022-12-20T17:54:45.573Z,15.30
2022-12-20T17:57:15.722Z,15.33
2022-12-20T17:59:44.396Z,15.21
2022-12-20T18:02:22.944Z,15.25
2022-12-20T18:04:51.726Z,15.17
2022-12-20T18:07:20.641Z,15.24
2022-12-20T18:09:52.072Z,15.30
2022-12-20T18:12:20.612Z,15.16
2022-12-20T18:14:50.768Z,15.28
2022-12-20T18:17:19.570Z,15.31
2022-12-20T18:19:47.870Z,15.25
2022-12-20T18:22:16.255Z,15.24
2022-12-20T18:24:44.601Z,15.18
2022-12-20T18:27:15.051Z,15.12
2022-12-20T18:29:43.411Z,15.12
2022-12-20T18:32:12.718Z,14.99
2022-12-20T18:34:41.158Z,15.10
2022-12-20T18:37:09.497Z,15.06
2022-12-20T18:39:38.059Z,15.09
2022-12-20T18:42:06.545Z,15.12
2022-12-20T18:44:36.620Z,15.22
2022-12-20T18:47:05.071Z,15.16
2022-12-20T18:49:33.456Z,15.13
2022-12-20T18:52:01.963Z,15.19
2022-12-20T18:54:31.180Z,15.23
2022-12-20T18:56:59.580Z,15.16
2022-12-20T18:59:27.933Z,15.26
2022-12-20T19:01:58.045Z,15.00
2022-12-20T19:04:26.511Z,14.88
2022-12-20T19:06:54.901Z,15.02
2022-12-20T19:09:23.281Z,14.94
2022-12-20T19:11:56.552Z,15.07
2022-12-20T19:14:26.320Z,15.15
2022-12-20T19:16:54.889Z,15.27
2022-12-20T19:19:24.653Z,15.28
2022-12-20T19:21:53.041Z,15.22
2022-12-20T19:24:21.439Z,15.18
2022-12-20T19:26:49.778Z,15.33
2022-12-20T19:29:18.101Z,15.41
2022-12-20T19:31:47.820Z,15.40
2022-12-20T19:34:16.376Z,15.18
2022-12-20T19:36:48.452Z,15.19
2022-12-20T19:39:20.094Z,15.30
2022-12-20T19:42:14.020Z,15.29
2022-12-20T19:44:37.107Z,15.25
2022-12-20T19:47:05.687Z,15.33
2022-12-20T19:49:35.508Z,15.32
2022-12-20T19:52:05.807Z,15.38
2022-12-20T19:54:34.116Z,15.40
2022-12-20T19:57:02.459Z,15.46
2022-12-20T19:59:31.466Z,15.41
2022-12-20T20:01:59.850Z,15.44
2022-12-20T20:04:28.338Z,15.40
2022-12-20T20:06:57.524Z,15.33
2022-12-20T20:09:27.380Z,15.42
2022-12-20T20:11:55.687Z,15.34
2022-12-20T20:14:24.010Z,15.37
2022-12-20T20:16:52.969Z,15.44
2022-12-20T20:19:21.653Z,15.43
2022-12-20T20:21:50.445Z,15.34
2022-12-20T20:24:18.913Z,15.37
2022-12-20T20:26:48.814Z,15.33
2022-12-20T20:29:17.134Z,15.39
2022-12-20T20:31:45.489Z,15.32
2022-12-20T20:34:13.865Z,15.27
2022-12-20T20:36:42.173Z,15.31
2022-12-20T20:39:10.490Z,15.30
2022-12-20T20:41:38.714Z,15.29
2022-12-20T20:44:08.346Z,15.25
2022-12-20T20:46:36.758Z,15.25
2022-12-20T20:49:06.466Z,15.17
2022-12-20T20:51:34.877Z,15.17
2022-12-20T20:54:03.150Z,15.17
2022-12-20T20:56:31.523Z,15.09
2022-12-20T20:59:05.242Z,15.22
2022-12-20T21:01:38.039Z,15.26
2022-12-20T21:04:07.190Z,15.27
2022-12-20T21:06:41.197Z,15.24
2022-12-20T21:09:10.240Z,15.28
2022-12-20T21:11:38.629Z,15.27
2022-12-20T21:14:07.082Z,15.30
2022-12-20T21:16:36.778Z,15.30
2022-12-20T21:19:06.751Z,15.28
2022-12-20T21:21:35.120Z,15.26
2022-12-20T21:24:03.521Z,15.28
2022-12-20T21:26:31.980Z,15.32
2022-12-20T21:29:01.131Z,15.24
2022-12-20T21:31:30.747Z,15.21
2022-12-20T21:33:59.317Z,15.10
2022-12-20T21:36:28.982Z,15.15
2022-12-20T21:38:59.977Z,15.15
2022-12-20T21:41:30.573Z,15.14
2022-12-20T21:44:00.434Z,15.14
2022-12-20T21:46:31.662Z,15.10
2022-12-20T21:49:00.351Z,15.07
2022-12-20T21:51:31.403Z,15.07
2022-12-20T21:54:01.428Z,15.12
2022-12-20T21:56:31.287Z,15.09
2022-12-20T21:58:59.954Z,15.10
2022-12-20T22:01:30.198Z,15.13
2022-12-20T22:04:00.857Z,15.15
2022-12-20T22:06:31.612Z,15.15
2022-12-20T22:09:00.061Z,15.11
2022-12-20T22:11:28.900Z,15.14
2022-12-20T22:13:57.552Z,15.15
2022-12-20T22:16:29.218Z,15.15
2022-12-20T22:18:59.196Z,15.13
2022-12-20T22:21:29.455Z,15.12
2022-12-20T22:24:00.949Z,15.17
2022-12-20T22:26:30.659Z,15.16
2022-12-20T22:29:01.163Z,15.15
2022-12-20T22:31:30.505Z,15.15
2022-12-20T22:34:00.060Z,15.13
2022-12-20T22:36:28.958Z,15.14
2022-12-20T22:38:59.021Z,15.13
2022-12-20T22:41:29.831Z,15.12
2022-12-20T22:43:59.744Z,15.09
2022-12-20T22:46:29.695Z,14.99
2022-12-20T22:48:58.743Z,14.99
2022-12-20T22:51:29.487Z,14.96
2022-12-20T22:54:00.636Z,14.93
2022-12-20T22:56:29.185Z,14.84
2022-12-20T22:58:57.453Z,14.89
2022-12-20T23:01:26.115Z,14.82
2022-12-20T23:03:54.506Z,14.81
2022-12-20T23:06:23.049Z,14.79
2022-12-20T23:08:51.371Z,14.74
2022-12-20T23:11:41.288Z,14.71
2022-12-20T23:14:30.346Z,14.65
2022-12-20T23:16:58.795Z,14.59
2022-12-20T23:19:27.240Z,14.59
2022-12-20T23:22:13.080Z,14.62
2022-12-20T23:24:41.353Z,14.55
2022-12-20T23:27:11.562Z,14.53
2022-12-20T23:29:41.044Z,14.53
2022-12-20T23:32:11.066Z,14.51
2022-12-20T23:34:40.121Z,14.51
2022-12-20T23:37:09.342Z,14.49
2022-12-20T23:39:38.008Z,14.47
2022-12-20T23:42:07.163Z,14.44
2022-12-20T23:44:36.994Z,14.48
2022-12-20T23:47:05.926Z,14.47
2022-12-20T23:49:34.645Z,14.43
2022-12-20T23:52:03.075Z,14.40
2022-12-20T23:54:31.490Z,14.35
2022-12-20T23:56:59.881Z,14.34
2022-12-20T23:59:28.367Z,14.28
